Time;durP1;ratioP1;P1;durP2;ratioP2;P2;SDS_P1;SDS_P2;PMS_P1;PMS_P2;Temp;Humidity;BMP_temperature;BMP_pressure;BME280_temperature;BME280_humidity;BME280_pressure;Samples;Min_cycle;Max_cycle;Signal;HPM_P1;HPM_P2
2021/08/25 00:00:22;;;;;;;23.40;14.33;;;;;;;16.82;100.00;99356.95;1752338;80;20876;-73
2021/08/25 00:02:57;;;;;;;21.17;13.95;;;;;;;16.84;100.00;99354.63;1750721;79;20990;-74
2021/08/25 00:05:28;;;;;;;22.00;13.25;;;;;;;16.84;100.00;99337.98;1721143;82;21883;-73
2021/08/25 00:07:55;;;;;;;22.13;14.28;;;;;;;16.84;100.00;99316.61;1704471;82;21071;-73
2021/08/25 00:10:32;;;;;;;20.30;12.77;;;;;;;16.82;100.00;99319.53;1719905;82;21526;-73
2021/08/25 00:13:08;;;;;;;19.70;13.48;;;;;;;16.80;100.00;99311.58;1762167;79;20945;-72
2021/08/25 00:15:37;;;;;;;22.30;14.25;;;;;;;16.83;100.00;99311.43;1781996;79;21400;-74
2021/08/25 00:18:07;;;;;;;21.55;15.18;;;;;;;16.83;100.00;99297.56;1788896;79;21556;-75
2021/08/25 00:20:40;;;;;;;22.17;14.23;;;;;;;16.78;100.00;99288.95;1787989;79;20975;-75
2021/08/25 00:23:06;;;;;;;;;;;;;;;16.74;100.00;99289.49;1750355;80;21428;-76
2021/08/25 00:25:33;;;;;;;22.82;12.88;;;;;;;16.71;100.00;99289.41;1740085;80;20086;-74
2021/08/25 00:28:22;;;;;;;18.60;12.88;;;;;;;16.68;100.00;99289.55;1765367;80;21007;-73
2021/08/25 00:30:37;;;;;;;22.60;13.65;;;;;;;16.68;100.00;99295.68;1770371;80;21976;-73
2021/08/25 00:33:12;;;;;;;18.70;12.23;;;;;;;16.68;100.00;99294.30;1758399;80;21474;-74
2021/08/25 00:35:44;;;;;;;20.85;13.32;;;;;;;16.71;100.00;99294.95;1694898;82;20920;-75
2021/08/25 00:38:15;;;;;;;18.57;11.78;;;;;;;16.72;100.00;99295.17;1768521;79;20967;-73
2021/08/25 00:40:47;;;;;;;20.05;12.13;;;;;;;16.72;100.00;99291.83;1750733;80;20907;-72
2021/08/25 00:43:16;;;;;;;18.05;12.73;;;;;;;16.72;100.00;99288.25;1751598;80;21526;-72
2021/08/25 00:45:54;;;;;;;18.90;12.05;;;;;;;16.69;100.00;99277.89;1726181;80;20931;-73
2021/08/25 00:48:23;;;;;;;20.80;13.03;;;;;;;16.68;100.00;99276.28;1763458;80;20900;-73
2021/08/25 00:50:56;;;;;;;20.02;13.10;;;;;;;16.65;100.00;99277.81;1743129;80;21526;-73
2021/08/25 00:53:24;;;;;;;20.92;12.85;;;;;;;16.65;100.00;99269.49;1764463;80;20975;-73
2021/08/25 00:55:57;;;;;;;18.25;12.15;;;;;;;16.61;100.00;99267.78;1766850;80;21147;-73
2021/08/25 00:58:26;;;;;;;18.42;11.68;;;;;;;16.59;100.00;99264.56;1777428;80;20984;-73
2021/08/25 01:01:05;;;;;;;20.62;11.88;;;;;;;16.55;100.00;99257.56;1745405;80;21538;-73
2021/08/25 01:03:51;;;;;;;20.27;12.10;;;;;;;16.56;100.00;99258.36;1753209;80;21592;-72
2021/08/25 01:06:26;;;;;;;21.82;12.55;;;;;;;16.55;100.00;99248.44;1763834;80;20963;-72
2021/08/25 01:09:02;;;;;;;19.17;12.43;;;;;;;16.56;100.00;99252.82;1774125;79;21160;-72
2021/08/25 01:11:26;;;;;;;;;;;;;;;16.54;100.00;99252.38;1778651;79;21478;-73
2021/08/25 01:13:57;;;;;;;15.15;11.93;;;;;;;16.53;100.00;99243.27;1731888;80;20097;-73
2021/08/25 01:16:27;;;;;;;19.65;11.05;;;;;;;16.52;100.00;99240.27;1760703;80;21036;-73
2021/08/25 01:18:56;;;;;;;15.18;11.05;;;;;;;16.53;100.00;99241.88;1773061;80;20936;-73
2021/08/25 01:21:31;;;;;;;17.90;12.57;;;;;;;16.54;100.00;99237.14;1768577;80;20998;-73
2021/08/25 01:24:01;;;;;;;21.80;12.20;;;;;;;16.54;100.00;99232.41;1742441;80;20986;-73
2021/08/25 01:26:31;;;;;;;18.45;11.30;;;;;;;16.57;100.00;99233.64;1738989;80;20892;-73
2021/08/25 01:29:03;;;;;;;20.17;12.00;;;;;;;16.60;100.00;99235.69;1747780;80;20911;-73
2021/08/25 01:31:33;;;;;;;18.07;11.90;;;;;;;16.58;100.00;99238.02;1757454;80;20877;-73
2021/08/25 01:34:11;;;;;;;18.25;11.95;;;;;;;16.58;100.00;99231.90;1757930;80;21052;-74
2021/08/25 01:36:40;;;;;;;24.80;11.75;;;;;;;16.60;100.00;99232.92;1756755;80;20917;-72
2021/08/25 01:39:09;;;;;;;17.87;11.60;;;;;;;16.60;100.00;99240.65;1759417;80;20968;-73
2021/08/25 01:41:40;;;;;;;16.45;11.45;;;;;;;16.61;100.00;99242.84;1774211;79;20920;-73
2021/08/25 01:44:08;;;;;;;20.65;12.53;;;;;;;16.63;100.00;99251.59;1786786;79;21098;-72
2021/08/25 01:46:42;;;;;;;19.95;12.10;;;;;;;16.64;100.00;99252.64;1779695;79;21145;-73
2021/08/25 01:49:18;;;;;;;16.57;11.65;;;;;;;16.65;100.00;99250.09;1724154;82;21066;-74
2021/08/25 01:51:45;;;;;;;17.50;12.10;;;;;;;16.63;100.00;99242.70;1793523;79;21027;-73
2021/08/25 01:54:21;;;;;;;19.35;12.37;;;;;;;16.59;100.00;99239.05;1791980;79;20957;-72
2021/08/25 01:56:50;;;;;;;20.17;12.50;;;;;;;16.58;100.00;99242.98;1797073;79;20976;-73
2021/08/25 01:59:23;;;;;;;18.80;12.10;;;;;;;16.58;100.00;99236.63;1788936;79;21135;-72
2021/08/25 02:01:50;;;;;;;20.90;12.87;;;;;;;16.59;100.00;99231.31;1785594;79;21040;-72
2021/08/25 02:04:20;;;;;;;19.90;13.83;;;;;;;16.59;100.00;99223.80;1752852;79;20955;-72
2021/08/25 02:06:50;;;;;;;19.77;12.45;;;;;;;16.59;100.00;99225.19;1782610;79;20919;-73
2021/08/25 02:09:24;;;;;;;20.85;12.63;;;;;;;16.58;100.00;99213.08;1757017;79;20928;-73
2021/08/25 02:11:52;;;;;;;20.60;12.55;;;;;;;16.60;100.00;99213.52;1785184;79;20978;-73
2021/08/25 02:14:24;;;;;;;17.30;11.88;;;;;;;16.59;100.00;99215.48;1741956;80;20889;-73
2021/08/25 02:16:56;;;;;;;19.62;13.03;;;;;;;16.57;100.00;99210.89;1750692;80;21123;-73
2021/08/25 02:19:23;;;;;;;18.70;12.68;;;;;;;16.54;100.00;99205.28;1763115;80;21082;-74
2021/08/25 02:21:51;;;;;;;21.77;13.30;;;;;;;16.51;100.00;99196.52;1757353;80;20996;-73
2021/08/25 02:24:22;;;;;;;19.65;13.43;;;;;;;16.48;100.00;99188.94;1759330;80;21245;-73
2021/08/25 02:26:55;;;;;;;21.33;13.58;;;;;;;16.43;100.00;99192.00;1755278;80;20849;-74
2021/08/25 02:29:24;;;;;;;19.00;13.30;;;;;;;16.38;100.00;99197.82;1737980;80;20935;-74
2021/08/25 02:31:54;;;;;;;20.27;13.55;;;;;;;16.35;100.00;99201.31;1771166;80;20861;-74
2021/08/25 02:34:26;;;;;;;17.50;12.28;;;;;;;16.38;100.00;99203.94;1760443;80;20869;-74
2021/08/25 02:36:56;;;;;;;17.67;12.55;;;;;;;16.40;100.00;99203.80;1743645;81;21566;-75
2021/08/25 02:39:26;;;;;;;16.65;12.37;;;;;;;16.44;100.00;99206.65;1763393;80;20875;-75
2021/08/25 02:41:57;;;;;;;19.77;12.70;;;;;;;16.45;100.00;99207.67;1737637;79;21007;-75
2021/08/25 02:44:25;;;;;;;19.57;12.18;;;;;;;16.46;100.00;99209.86;1777593;79;20873;-75
2021/08/25 02:46:56;;;;;;;19.87;13.85;;;;;;;16.46;100.00;99210.66;1793025;79;20900;-74
2021/08/25 02:49:24;;;;;;;16.97;12.07;;;;;;;16.46;100.00;99214.82;1776774;79;20956;-74
2021/08/25 02:51:56;;;;;;;17.62;13.53;;;;;;;16.46;100.00;99207.89;1783666;79;20988;-74
2021/08/25 02:54:34;;;;;;;19.20;13.22;;;;;;;16.45;100.00;99203.52;1789311;79;20936;-74
2021/08/25 02:57:04;;;;;;;20.60;12.88;;;;;;;16.47;100.00;99209.50;1711867;82;20892;-74
2021/08/25 02:59:35;;;;;;;19.32;12.68;;;;;;;16.48;100.00;99207.53;1720410;82;20916;-74
2021/08/25 03:02:06;;;;;;;16.93;12.35;;;;;;;16.47;100.00;99207.31;1730917;82;21150;-74
2021/08/25 03:04:38;;;;;;;20.50;13.10;;;;;;;16.44;100.00;99206.65;1730229;82;20968;-73
2021/08/25 03:07:10;;;;;;;18.98;12.20;;;;;;;16.41;100.00;99206.80;1794857;79;20961;-74
2021/08/25 03:09:41;;;;;;;23.35;13.88;;;;;;;16.40;100.00;99207.16;1763122;79;20899;-74
2021/08/25 03:12:14;;;;;;;19.30;13.77;;;;;;;16.40;100.00;99209.34;1797370;79;20893;-74
2021/08/25 03:14:46;;;;;;;25.85;13.38;;;;;;;16.43;100.00;99210.00;1788387;79;21783;-73
2021/08/25 03:17:18;;;;;;;19.30;13.00;;;;;;;16.47;100.00;99212.85;1778460;79;20895;-71
2021/08/25 03:19:50;;;;;;;17.40;12.65;;;;;;;16.48;100.00;99207.53;1776122;79;20876;-70
2021/08/25 03:22:22;;;;;;;20.02;12.45;;;;;;;16.48;100.00;99209.72;1752708;80;21026;-72
2021/08/25 03:24:51;;;;;;;20.45;12.88;;;;;;;16.47;100.00;99209.50;1767025;80;20924;-70
2021/08/25 03:27:19;;;;;;;16.23;12.65;;;;;;;16.48;100.00;99205.56;1745159;80;21464;-71
2021/08/25 03:29:52;;;;;;;17.85;12.68;;;;;;;16.54;100.00;99209.44;1762749;80;21486;-72
2021/08/25 03:32:21;;;;;;;25.90;13.50;;;;;;;16.55;100.00;99204.91;1769797;80;20969;-72
2021/08/25 03:34:48;;;;;;;22.87;14.70;;;;;;;16.54;100.00;99209.44;1741341;80;20908;-72
2021/08/25 03:37:20;;;;;;;18.20;13.15;;;;;;;16.53;100.00;99206.44;1719068;81;20884;-72
2021/08/25 03:39:49;;;;;;;21.30;13.97;;;;;;;16.54;100.00;99211.62;1733335;82;21104;-70
2021/08/25 03:42:15;;;;;;;19.48;13.08;;;;;;;16.56;100.00;99212.64;1728488;81;20968;-69
2021/08/25 03:44:45;;;;;;;19.95;14.53;;;;;;;16.57;100.00;99217.82;1708078;81;20980;-70
2021/08/25 03:47:19;;;;;;;24.55;13.85;;;;;;;16.63;100.00;99215.56;1725721;80;21027;-69
2021/08/25 03:49:46;;;;;;;21.45;13.18;;;;;;;16.69;100.00;99214.14;1735548;81;21519;-72
2021/08/25 03:52:13;;;;;;;24.43;13.08;;;;;;;16.70;100.00;99214.36;1732164;80;21547;-73
2021/08/25 03:54:41;;;;;;;24.02;14.78;;;;;;;16.70;100.00;99215.75;1750671;80;20896;-73
2021/08/25 03:57:12;;;;;;;23.25;14.83;;;;;;;16.72;100.00;99214.80;1754069;81;21292;-73
2021/08/25 03:59:41;;;;;;;20.43;16.30;;;;;;;16.73;100.00;99216.41;1742363;81;21056;-73
2021/08/25 04:02:07;;;;;;;20.37;15.53;;;;;;;16.75;100.00;99215.45;1755241;80;21031;-73
2021/08/25 04:04:37;;;;;;;23.70;16.35;;;;;;;16.78;100.00;99213.31;1727682;81;21511;-73
2021/08/25 04:07:09;;;;;;;23.18;16.75;;;;;;;16.81;100.00;99219.52;1768232;80;20911;-72
2021/08/25 04:09:37;;;;;;;27.85;15.55;;;;;;;16.86;100.00;99216.45;1754181;80;20935;-72
2021/08/25 04:12:08;;;;;;;20.37;14.25;;;;;;;16.89;100.00;99209.37;1732301;80;21045;-72
2021/08/25 04:14:40;;;;;;;22.00;15.38;;;;;;;16.94;100.00;99197.40;1766136;80;20975;-72
2021/08/25 04:17:11;;;;;;;27.75;14.60;;;;;;;16.97;100.00;99197.25;1731448;80;20852;-72
2021/08/25 04:19:39;;;;;;;24.25;14.80;;;;;;;16.97;100.00;99202.21;1773980;80;20884;-72
2021/08/25 04:22:09;;;;;;;22.90;15.18;;;;;;;16.97;100.00;99198.05;1732735;80;21000;-73
2021/08/25 04:24:37;;;;;;;27.73;15.58;;;;;;;17.00;100.00;99202.06;1750126;80;21014;-76
2021/08/25 04:27:04;;;;;;;29.35;15.78;;;;;;;17.06;100.00;99210.30;1732095;80;21471;-75
2021/08/25 04:29:37;;;;;;;24.82;14.70;;;;;;;17.11;100.00;99203.88;1729675;79;20926;-77
2021/08/25 04:32:14;;;;;;;21.20;15.37;;;;;;;17.15;100.00;99206.13;1738647;80;21511;-67
2021/08/25 04:34:45;;;;;;;25.40;15.88;;;;;;;17.20;100.00;99209.19;1746531;80;21066;-69
2021/08/25 04:37:15;;;;;;;;;;;;;;;17.21;100.00;99205.25;1749775;81;21471;-71
2021/08/25 04:39:45;;;;;;;22.35;15.13;;;;;;;17.22;100.00;99198.53;1735862;80;20147;-64
2021/08/25 04:42:20;;;;;;;27.73;15.18;;;;;;;17.23;100.00;99202.91;1758379;80;21148;-68
2021/08/25 04:44:51;;;;;;;22.80;14.75;;;;;;;17.24;100.00;99200.35;1737832;80;20920;-71
2021/08/25 04:47:23;;;;;;;20.75;14.38;;;;;;;17.26;100.00;99198.02;1750225;81;20912;-69
2021/08/25 04:49:51;;;;;;;27.22;14.90;;;;;;;17.30;100.00;99197.49;1745923;80;20936;-68
2021/08/25 04:52:24;;;;;;;20.08;14.47;;;;;;;17.35;100.00;99194.97;1757228;81;20983;-66
2021/08/25 04:54:55;;;;;;;18.80;13.55;;;;;;;17.39;100.00;99193.86;1693413;82;20964;-67
2021/08/25 04:57:24;;;;;;;21.62;14.38;;;;;;;17.44;100.00;99192.75;1732724;82;20969;-67
2021/08/25 04:59:56;;;;;;;18.55;12.10;;;;;;;17.47;100.00;99188.66;1712750;82;20971;-65
2021/08/25 05:02:24;;;;;;;23.45;13.03;;;;;;;17.51;100.00;99187.33;1738579;82;20896;-68
2021/08/25 05:04:55;;;;;;;18.05;12.70;;;;;;;17.55;100.00;99185.41;1739360;81;21007;-68
2021/08/25 05:07:26;;;;;;;20.30;13.32;;;;;;;17.60;100.00;99187.08;1691218;83;21164;-69
2021/08/25 05:10:00;;;;;;;22.75;13.38;;;;;;;17.65;100.00;99186.77;1655110;85;21047;-69
2021/08/25 05:12:36;;;;;;;20.15;13.83;;;;;;;17.65;100.00;99176.50;1658791;85;20932;-69
2021/08/25 05:15:08;;;;;;;23.95;14.45;;;;;;;17.64;100.00;99185.97;1697477;82;20959;-68
2021/08/25 05:17:45;;;;;;;20.88;14.53;;;;;;;17.65;100.00;99182.05;1694469;82;21031;-69
2021/08/25 05:20:18;;;;;;;23.07;14.23;;;;;;;17.67;100.00;99177.52;1725272;82;21209;-69
2021/08/25 05:22:59;;;;;;;18.87;14.33;;;;;;;17.68;100.00;99182.69;1699191;81;20990;-69
2021/08/25 05:25:26;;;;;;;22.60;14.00;;;;;;;17.68;100.00;99184.08;1722659;79;20880;-69
2021/08/25 05:27:58;;;;;;;20.43;14.28;;;;;;;17.67;100.00;99183.06;1780644;79;20855;-69
2021/08/25 05:30:28;;;;;;;21.40;14.60;;;;;;;17.68;100.00;99186.05;1779903;79;20985;-68
2021/08/25 05:33:00;;;;;;;;;;;;;;;17.67;100.00;99183.86;1792733;79;21187;-69
2021/08/25 05:35:29;;;;;;;19.35;13.80;;;;;;;17.66;100.00;99175.32;1781874;79;20083;-69
2021/08/25 05:37:56;;;;;;;25.45;15.30;;;;;;;17.68;100.00;99177.14;1775262;80;20979;-68
2021/08/25 05:40:26;;;;;;;24.47;14.30;;;;;;;17.70;100.00;99170.63;1795315;79;21449;-68
2021/08/25 05:42:57;;;;;;;26.55;15.08;;;;;;;17.76;100.00;99178.06;1783892;79;20873;-68
2021/08/25 05:45:25;;;;;;;24.92;14.70;;;;;;;17.78;100.00;99172.34;1795816;79;21113;-68
2021/08/25 05:48:01;;;;;;;22.60;14.23;;;;;;;17.83;100.00;99176.78;1696316;83;21030;-69
2021/08/25 05:50:33;;;;;;;21.42;15.68;;;;;;;17.83;100.00;99172.62;1760263;79;21079;-69
2021/08/25 05:52:59;;;;;;;23.07;15.48;;;;;;;17.83;100.00;99178.76;1791151;79;20955;-69
2021/08/25 05:55:32;;;;;;;18.27;14.10;;;;;;;17.84;100.00;99169.25;1787303;79;20991;-69
2021/08/25 05:58:04;;;;;;;20.12;14.20;;;;;;;17.89;100.00;99170.33;1780452;80;21931;-69
2021/08/25 06:00:37;;;;;;;19.52;13.98;;;;;;;17.93;100.00;99168.38;1727362;80;21452;-69
2021/08/25 06:03:06;;;;;;;19.52;14.07;;;;;;;17.97;100.00;99170.62;1753570;80;21493;-69
2021/08/25 06:05:39;;;;;;;18.62;13.98;;;;;;;18.03;100.00;99169.92;1772271;80;21974;-69
2021/08/25 06:08:11;;;;;;;20.80;15.68;;;;;;;18.13;100.00;99174.03;1762658;80;20892;-69
2021/08/25 06:10:43;;;;;;;20.37;13.10;;;;;;;18.21;100.00;99172.96;1764094;80;21974;-69
2021/08/25 06:13:13;;;;;;;25.45;13.35;;;;;;;18.31;100.00;99180.64;1766058;80;20908;-69
2021/08/25 06:15:46;;;;;;;19.35;13.83;;;;;;;18.38;100.00;99186.30;1733747;81;20933;-72
2021/08/25 06:18:21;;;;;;;18.35;13.13;;;;;;;18.46;100.00;99194.95;1756450;80;20944;-70
2021/08/25 06:20:49;;;;;;;23.65;13.53;;;;;;;18.52;100.00;99193.20;1768840;80;20909;-70
2021/08/25 06:23:21;;;;;;;33.25;14.40;;;;;;;18.47;100.00;99193.77;1749723;80;21891;-70
2021/08/25 06:25:53;;;;;;;24.00;12.82;;;;;;;18.39;100.00;99187.91;1755877;80;21404;-72
2021/08/25 06:28:27;;;;;;;17.05;12.23;;;;;;;18.26;100.00;99190.70;1735118;80;20970;-75
2021/08/25 06:30:56;;;;;;;18.05;13.03;;;;;;;18.12;100.00;99194.06;1734736;81;21005;-76
2021/08/25 06:33:29;;;;;;;23.87;13.68;;;;;;;18.00;100.00;99193.48;1727021;80;21307;-82
2021/08/25 06:35:57;;;;;;;19.35;13.25;;;;;;;17.92;100.00;99202.28;1768406;80;22171;-78
2021/08/25 06:38:25;;;;;;;20.60;14.43;;;;;;;17.88;100.00;99204.23;1773073;80;20967;-75
2021/08/25 06:40:53;;;;;;;20.17;14.25;;;;;;;17.88;100.00;99203.43;1750857;80;20971;-75
2021/08/25 06:43:25;;;;;;;18.87;14.33;;;;;;;17.89;100.00;99206.42;1741971;80;21063;-74
2021/08/25 06:45:58;;;;;;;18.92;14.45;;;;;;;17.90;100.00;99214.97;1761109;80;21031;-78
2021/08/25 06:48:27;;;;;;;47.15;17.02;;;;;;;17.90;100.00;99218.55;1726473;80;20944;-73
2021/08/25 06:50:57;;;;;;;23.42;14.75;;;;;;;17.92;100.00;99219.53;1732496;81;21562;-72
2021/08/25 06:53:30;;;;;;;19.20;13.88;;;;;;;17.96;100.00;99212.86;1758032;81;20948;-76
2021/08/25 06:56:00;;;;;;;23.20;14.38;;;;;;;18.08;100.00;99211.85;1770909;80;20988;-75
2021/08/25 06:58:29;;;;;;;18.82;15.32;;;;;;;18.25;100.00;99202.19;1726044;80;21068;-68
2021/08/25 07:00:56;;;;;;;24.20;15.70;;;;;;;18.42;100.00;99203.02;1744093;80;23449;-73
2021/08/25 07:03:30;;;;;;;23.95;14.93;;;;;;;18.59;100.00;99204.41;1759194;80;21570;-70
2021/08/25 07:06:00;;;;;;;31.77;17.32;;;;;;;18.77;100.00;99205.47;1744949;80;20960;-70
2021/08/25 07:08:30;;;;;;;25.23;15.75;;;;;;;18.93;100.00;99204.67;1701799;81;20944;-74
2021/08/25 07:10:56;;;;;;;24.45;15.35;;;;;;;19.11;100.00;99209.82;1733112;81;21094;-73
2021/08/25 07:13:25;;;;;;;19.67;13.22;;;;;;;19.29;100.00;99209.21;1728697;81;22048;-73
2021/08/25 07:16:01;;;;;;;21.87;14.45;;;;;;;19.46;98.61;99208.00;1686803;83;21042;-74
2021/08/25 07:18:29;;;;;;;24.72;14.85;;;;;;;19.57;96.32;99209.53;1701970;82;21569;-73
2021/08/25 07:20:55;;;;;;;27.37;13.83;;;;;;;19.61;96.88;99211.75;1711755;81;21031;-73
2021/08/25 07:23:27;;;;;;;26.57;13.48;;;;;;;19.68;95.61;99209.00;1688833;83;21028;-72
2021/08/25 07:25:59;;;;;;;20.95;15.75;;;;;;;19.82;94.86;99210.30;1721223;82;21080;-72
2021/08/25 07:28:30;;;;;;;24.50;15.53;;;;;;;19.94;93.58;99207.22;1731399;81;21648;-70
2021/08/25 07:31:04;;;;;;;26.40;16.85;;;;;;;19.98;92.60;99194.12;1705663;81;21003;-73
2021/08/25 07:33:38;;;;;;;25.75;16.00;;;;;;;19.94;92.14;99204.44;1692732;82;21011;-72
2021/08/25 07:36:09;;;;;;;21.33;16.55;;;;;;;19.84;91.67;99208.73;1687047;83;21019;-76
2021/08/25 07:38:35;;;;;;;25.90;16.62;;;;;;;19.74;91.70;99201.09;1733736;80;21562;-73
2021/08/25 07:41:09;;;;;;;26.68;17.80;;;;;;;19.64;92.67;99212.34;1778424;80;21493;-73
2021/08/25 07:43:40;;;;;;;28.55;17.67;;;;;;;19.57;93.12;99219.86;1773759;80;21601;-75
2021/08/25 07:46:12;;;;;;;21.82;15.90;;;;;;;19.54;93.74;99217.25;1753839;80;21068;-72
2021/08/25 07:48:40;;;;;;;22.58;16.25;;;;;;;19.58;93.96;99213.91;1759992;80;21620;-76
2021/08/25 07:51:09;;;;;;;22.98;15.90;;;;;;;19.64;93.77;99215.13;1766645;80;21494;-75
2021/08/25 07:53:45;;;;;;;20.02;14.40;;;;;;;19.66;92.92;99214.74;1765340;80;21601;-74
2021/08/25 07:56:15;;;;;;;20.55;13.55;;;;;;;19.68;92.90;99215.96;1758216;80;20892;-74
2021/08/25 07:58:49;;;;;;;20.30;13.62;;;;;;;19.70;92.49;99213.59;1771075;80;21675;-75
2021/08/25 08:01:19;;;;;;;19.87;13.18;;;;;;;19.78;92.36;99213.86;1757514;80;21062;-76
2021/08/25 08:03:51;;;;;;;19.65;12.80;;;;;;;19.87;91.85;99208.56;1739818;80;21013;-77
2021/08/25 08:06:20;;;;;;;18.50;11.65;;;;;;;19.93;91.79;99205.63;1741130;80;20955;-76
2021/08/25 08:08:52;;;;;;;16.20;10.88;;;;;;;20.00;92.13;99198.71;1775573;80;20916;-75
2021/08/25 08:11:21;;;;;;;19.82;11.63;;;;;;;20.08;91.60;99204.55;1743673;81;21510;-74
2021/08/25 08:13:53;;;;;;;16.07;11.83;;;;;;;20.16;91.58;99203.41;1738619;80;21018;-75
2021/08/25 08:16:21;;;;;;;12.98;10.32;;;;;;;20.22;91.49;99196.25;1740687;80;21629;-76
2021/08/25 08:19:16;;;;;;;10.20;8.70;;;;;;;20.23;89.97;99195.66;1770341;79;21542;-76
2021/08/25 08:21:30;;;;;;;12.55;8.98;;;;;;;20.13;89.85;99195.82;1755771;80;20986;-75
2021/08/25 08:24:04;;;;;;;10.15;8.25;;;;;;;20.03;89.86;99196.55;1738681;80;20980;-74
2021/08/25 08:26:36;;;;;;;12.18;8.43;;;;;;;20.04;91.04;99198.94;1733231;81;20944;-76
2021/08/25 08:29:08;;;;;;;10.23;7.87;;;;;;;20.13;91.31;99194.42;1749848;81;21497;-75
2021/08/25 08:31:38;;;;;;;10.18;7.78;;;;;;;20.27;89.45;99194.48;1751297;81;21529;-75
2021/08/25 08:34:07;;;;;;;12.90;8.13;;;;;;;20.42;89.11;99190.63;1750187;81;21952;-76
2021/08/25 08:36:42;;;;;;;8.63;7.15;;;;;;;20.61;89.26;99190.12;1753796;81;20901;-76
2021/08/25 08:39:10;;;;;;;10.88;7.65;;;;;;;20.91;87.62;99189.22;1758785;81;20984;-74
2021/08/25 08:41:44;;;;;;;11.90;6.10;;;;;;;21.15;84.03;99191.89;1750891;80;21123;-75
2021/08/25 08:44:17;;;;;;;9.43;6.12;;;;;;;21.32;83.19;99186.17;1721233;81;21078;-75
2021/08/25 08:46:51;;;;;;;8.75;7.33;;;;;;;21.51;82.96;99180.79;1702341;83;21535;-75
2021/08/25 08:49:22;;;;;;;9.35;6.65;;;;;;;21.70;81.59;99180.41;1722864;81;21547;-75
2021/08/25 08:51:56;;;;;;;7.80;6.42;;;;;;;21.76;78.65;99187.19;1688128;82;21142;-75
2021/08/25 08:54:32;;;;;;;12.65;8.33;;;;;;;21.87;78.85;99175.41;1684328;84;21238;-74
2021/08/25 08:57:05;;;;;;;;;;;;;;;22.11;78.11;99181.38;1677211;85;20998;-75
2021/08/25 08:59:38;;;;;;;14.00;7.47;;;;;;;22.23;78.33;99184.55;1682408;85;20439;-75
2021/08/25 09:02:07;;;;;;;14.13;7.30;;;;;;;22.29;77.85;99188.53;1682810;85;20899;-75
2021/08/25 09:04:46;;;;;;;7.33;6.62;;;;;;;22.41;77.25;99181.71;1680686;85;46466;-73
2021/08/25 09:07:19;;;;;;;8.13;6.08;;;;;;;22.49;76.69;99175.50;1735619;81;21069;-73
2021/08/25 09:09:58;;;;;;;12.13;7.10;;;;;;;22.43;75.38;99175.72;1723779;82;21020;-74
2021/08/25 09:12:28;;;;;;;11.05;6.30;;;;;;;22.41;75.63;99171.92;1744656;81;20972;-74
2021/08/25 09:15:01;;;;;;;9.15;6.78;;;;;;;22.53;74.82;99174.88;1748289;81;21481;-72
2021/08/25 09:17:34;;;;;;;;;;;;;;;22.67;74.07;99172.00;1734573;81;21000;-72
2021/08/25 09:20:11;;;;;;;7.60;5.62;;;;;;;22.77;72.94;99168.37;1744577;81;21485;-73
2021/08/25 09:22:43;;;;;;;8.95;5.15;;;;;;;22.94;71.97;99175.91;1742517;81;20924;-74
2021/08/25 09:25:10;;;;;;;8.55;4.67;;;;;;;23.11;71.61;99170.63;1742638;81;20968;-73
2021/08/25 09:27:43;;;;;;;9.48;4.92;;;;;;;23.26;70.12;99165.11;1732874;81;21012;-73
2021/08/25 09:30:12;;;;;;;8.50;6.35;;;;;;;23.35;68.42;99169.05;1747901;81;21212;-71
2021/08/25 09:32:42;;;;;;;7.67;6.12;;;;;;;23.25;69.92;99171.91;1728517;81;21070;-72
2021/08/25 09:35:11;;;;;;;7.72;4.90;;;;;;;23.11;71.60;99179.03;1746434;81;21013;-90
2021/08/25 09:37:42;;;;;;;6.05;4.90;;;;;;;23.01;71.90;99173.08;1725256;81;20931;-72
2021/08/25 09:40:19;;;;;;;6.12;4.12;;;;;;;22.90;72.17;99166.73;1728894;81;21066;-73
2021/08/25 09:42:46;;;;;;;3.83;3.52;;;;;;;22.90;72.70;99158.34;1745829;81;20912;-75
2021/08/25 09:45:18;;;;;;;6.20;3.65;;;;;;;23.10;72.58;99160.03;1745100;81;21122;-74
2021/08/25 09:47:59;;;;;;;4.80;3.20;;;;;;;23.22;71.34;99153.13;1749418;81;21122;-75
2021/08/25 09:50:32;;;;;;;5.80;3.25;;;;;;;23.28;71.10;99147.29;1731735;81;21490;-74
2021/08/25 09:52:57;;;;;;;;;;;;;;;23.23;69.87;99147.73;1751652;81;20893;-75
2021/08/25 09:55:34;;;;;;;4.03;2.52;;;;;;;23.16;69.74;99154.77;1718587;79;20094;-75
2021/08/25 09:58:07;;;;;;;3.08;2.80;;;;;;;23.05;69.24;99155.66;1770264;79;21073;-76
2021/08/25 10:00:37;;;;;;;4.72;2.40;;;;;;;22.81;69.87;99150.99;1744337;80;21503;-77
2021/08/25 10:03:09;;;;;;;2.92;2.62;;;;;;;22.55;70.55;99152.88;1754028;80;21574;-76
2021/08/25 10:05:39;;;;;;;4.03;2.27;;;;;;;22.31;70.88;99151.17;1737559;80;21486;-75
2021/08/25 10:08:08;;;;;;;4.20;2.20;;;;;;;22.16;72.77;99155.81;1721017;82;21045;-77
2021/08/25 10:10:34;;;;;;;5.28;2.20;;;;;;;22.13;72.06;99157.41;1727752;82;22136;-74
2021/08/25 10:13:16;;;;;;;3.75;1.87;;;;;;;22.14;72.74;99156.20;1739924;80;20983;-75
2021/08/25 10:15:45;;;;;;;3.25;2.00;;;;;;;22.20;74.01;99153.20;1712419;82;21084;-73
2021/08/25 10:18:30;;;;;;;2.50;1.92;;;;;;;22.39;72.74;99153.35;1712249;83;20975;-70
2021/08/25 10:20:58;;;;;;;2.35;1.77;;;;;;;22.56;71.61;99150.27;1708314;82;21470;-75
2021/08/25 10:24:01;;;;;;;2.55;1.65;;;;;;;22.84;69.24;99152.98;1690758;82;21094;-76
2021/08/25 10:26:31;;;;;;;1.90;1.60;;;;;;;22.97;68.27;99138.71;1717939;82;20976;-73
2021/08/25 10:29:09;;;;;;;3.58;2.27;;;;;;;22.84;67.49;99148.78;1708825;83;20945;-74
2021/08/25 10:34:33;;;;;;;2.50;1.87;;;;;;;22.57;66.67;99135.08;1703970;81;20928;-70
2021/08/25 10:37:20;;;;;;;;;;;;;;;22.77;67.77;99131.19;1714887;82;21139;-73
2021/08/25 10:40:00;;;;;;;4.80;1.87;;;;;;;23.06;66.03;99129.86;1705944;83;20091;-75
2021/08/25 10:42:51;;;;;;;4.45;1.77;;;;;;;23.36;65.63;99141.84;1710985;83;20990;-74
2021/08/25 10:45:47;;;;;;;4.08;1.50;;;;;;;23.68;65.53;99128.38;1712762;83;20889;-73
2021/08/25 10:48:16;;;;;;;1.10;1.00;;;;;;;23.88;63.09;99127.19;1711074;82;21083;-73
2021/08/25 10:50:58;;;;;;;4.67;1.55;;;;;;;23.78;63.34;99124.48;1695935;84;21102;-75
2021/08/25 10:53:34;;;;;;;3.02;1.70;;;;;;;23.89;62.56;99118.17;1695818;83;20967;-77
2021/08/25 10:56:35;;;;;;;1.50;1.10;;;;;;;24.24;60.17;99107.98;1709614;82;21508;-74
2021/08/25 10:59:12;;;;;;;4.20;1.27;;;;;;;24.56;58.74;99108.21;1695182;83;21072;-74
2021/08/25 11:01:46;;;;;;;0.82;0.78;;;;;;;24.92;57.03;99108.50;1682598;84;20983;-75
2021/08/25 11:04:29;;;;;;;5.33;1.10;;;;;;;25.11;57.04;99100.83;1684234;83;21172;-74
2021/08/25 11:07:09;;;;;;;2.55;0.80;;;;;;;25.28;56.47;99101.78;1702153;84;20995;-74
2021/08/25 11:09:46;;;;;;;4.78;1.10;;;;;;;25.50;52.69;99094.56;1694893;83;21140;-74
2021/08/25 11:12:26;;;;;;;1.90;1.10;;;;;;;25.55;52.64;99095.48;1752415;81;21197;-74
2021/08/25 11:15:03;;;;;;;2.37;0.95;;;;;;;25.47;53.61;99096.83;1718981;81;20928;-74
2021/08/25 11:17:34;;;;;;;1.12;1.00;;;;;;;25.52;55.41;99094.94;1745896;80;21538;-74
2021/08/25 11:20:08;;;;;;;0.60;0.60;;;;;;;25.72;54.32;99091.42;1743715;80;21051;-75
2021/08/25 11:22:44;;;;;;;2.27;1.12;;;;;;;25.97;53.80;99087.55;1734856;82;20975;-74
2021/08/25 11:25:17;;;;;;;3.75;1.00;;;;;;;26.21;52.52;99091.86;1752936;80;21031;-74
2021/08/25 11:27:51;;;;;;;1.00;1.00;;;;;;;26.30;50.98;99087.07;1729615;81;20913;-74
2021/08/25 11:30:25;;;;;;;1.52;0.95;;;;;;;26.38;49.75;99087.75;1744407;80;22400;-74
2021/08/25 11:33:03;;;;;;;3.47;1.10;;;;;;;26.43;50.47;99081.62;1769152;80;21033;-75
2021/08/25 11:35:44;;;;;;;1.65;0.90;;;;;;;26.58;50.43;99093.52;1749277;80;20983;-75
2021/08/25 11:38:15;;;;;;;2.00;1.20;;;;;;;26.64;48.90;99079.73;1753947;80;20980;-75
2021/08/25 11:40:45;;;;;;;3.08;1.00;;;;;;;26.42;48.53;99089.27;1751580;80;21543;-75
2021/08/25 11:43:23;;;;;;;1.90;1.27;;;;;;;26.26;48.97;99086.34;1753696;79;21154;-73